Terminal Aerodrome Forecast
Issued by NWS

Home | Current Version | Previous Version | Graphics & Text | Print | Product List | Glossary On
Versions: 1 2 3 4 5 6 7 8 9 10 11 12 13 14 15 16 17 18
000
FTUS43 KABR 102000 AAB
TAFATY
TAF AMD
KATY 102025Z 1020/1118 17013G20KT P6SM FEW080 BKN150
      TEMPO 1020/1022 -SHRA FEW040 BKN080 OVC120
     FM110000 17010KT P6SM VCTS BKN050CB BKN100
     FM110500 17006KT P6SM SCT100 BKN250
     FM110900 VRB06KT 4SM BR OVC009
     FM111600 20006KT P6SM OVC015=

USA.gov is the U.S. government's official web portal to all federal, state and local government web resources and services.